Time;durP1;ratioP1;P1;durP2;ratioP2;P2;SDS_P1;SDS_P2;PMS_P1;PMS_P2;Temp;Humidity;BMP_temperature;BMP_pressure;BME280_temperature;BME280_humidity;BME280_pressure;Samples;Min_cycle;Max_cycle;Signal;HPM_P1;HPM_P2
2022/06/15 00:01:04;;;;;;;10.93;6.17;;;12.10;99.90;;;;;;6208901;23;20214;-91
2022/06/15 00:03:32;;;;;;;8.07;6.30;;;12.00;99.90;;;;;;6208539;23;20202;-91
2022/06/15 00:06:14;;;;;;;7.67;5.43;;;11.90;99.90;;;;;;6209669;23;20491;-91
2022/06/15 00:08:42;;;;;;;6.63;5.03;;;11.90;99.90;;;;;;6209069;23;20278;-92
2022/06/15 00:11:13;;;;;;;10.17;5.50;;;11.80;99.90;;;;;;6208638;23;20220;-91
2022/06/15 00:13:39;;;;;;;6.67;4.73;;;11.70;99.90;;;;;;6208308;23;20209;-92
2022/06/15 00:16:06;;;;;;;7.87;6.10;;;11.60;99.90;;;;;;6208927;23;20197;-91
2022/06/15 00:18:33;;;;;;;6.43;4.73;;;11.60;99.90;;;;;;6183831;23;20201;-91
2022/06/15 00:20:59;;;;;;;7.50;5.40;;;11.50;99.90;;;;;;6183921;23;20193;-92
2022/06/15 00:23:26;;;;;;;7.53;5.17;;;11.50;99.90;;;;;;6158756;23;20190;-92
2022/06/15 00:25:52;;;;;;;6.77;5.57;;;11.50;99.90;;;;;;6208403;23;20198;-92
2022/06/15 00:28:19;;;;;;;6.97;4.37;;;11.50;99.90;;;;;;6208772;23;20200;-91
2022/06/15 00:30:46;;;;;;;7.93;4.70;;;11.50;99.90;;;;;;6208675;23;20201;-91
2022/06/15 00:33:12;;;;;;;8.03;5.07;;;11.50;99.90;;;;;;6183521;23;20158;-88
2022/06/15 00:35:39;;;;;;;7.97;4.73;;;11.50;99.90;;;;;;6184063;23;20162;-90
2022/06/15 00:38:07;;;;;;;6.03;5.43;;;11.50;99.90;;;;;;6159307;23;20539;-90
2022/06/15 00:40:34;;;;;;;5.20;4.63;;;11.50;99.90;;;;;;6183799;23;20281;-90
2022/06/15 00:43:01;;;;;;;6.47;4.93;;;11.40;99.90;;;;;;6210258;23;20524;-91
2022/06/15 00:45:27;;;;;;;8.77;5.63;;;11.50;99.90;;;;;;6183079;23;20601;-91
2022/06/15 00:47:53;;;;;;;5.87;4.47;;;11.50;99.90;;;;;;6160018;23;20158;-91
2022/06/15 00:50:25;;;;;;;10.53;6.60;;;11.50;99.90;;;;;;6208581;23;20218;-89
2022/06/15 00:53:07;;;;;;;7.37;5.73;;;11.50;99.90;;;;;;6209103;23;20221;-88
2022/06/15 00:55:34;;;;;;;11.30;7.30;;;11.50;99.90;;;;;;6208430;23;20197;-91
2022/06/15 00:58:07;;;;;;;8.93;6.33;;;11.50;99.90;;;;;;6183061;23;20301;-91
2022/06/15 01:00:33;;;;;;;7.70;6.37;;;11.50;99.90;;;;;;6208218;23;20326;-91
2022/06/15 01:02:59;;;;;;;8.50;5.13;;;11.40;99.90;;;;;;6184229;23;20162;-91
2022/06/15 01:05:44;;;;;;;9.53;4.93;;;11.40;99.90;;;;;;6182527;23;20535;-91
2022/06/15 01:08:48;;;;;;;10.13;6.50;;;11.40;99.90;;;;;;6208254;23;20201;-90
2022/06/15 01:11:30;;;;;;;8.10;5.33;;;11.50;99.90;;;;;;6064285;23;20204;-90
2022/06/15 01:14:16;;;;;;;7.77;5.93;;;11.50;99.90;;;;;;6222862;23;20198;-91
2022/06/15 01:17:05;;;;;;;9.13;4.73;;;11.50;99.90;;;;;;6207809;23;20209;-91
2022/06/15 01:20:09;;;;;;;8.10;6.07;;;11.40;99.90;;;;;;6133385;23;20198;-90
2022/06/15 01:22:57;;;;;;;13.87;6.33;;;11.40;99.90;;;;;;6208117;23;20288;-91
2022/06/15 01:25:35;;;;;;;13.43;6.43;;;11.50;99.90;;;;;;6208110;23;20206;-91
2022/06/15 01:28:23;;;;;;;8.00;5.77;;;11.40;99.90;;;;;;6208253;23;20599;-91
2022/06/15 01:30:52;;;;;;;11.73;5.70;;;11.40;99.90;;;;;;6207834;23;20213;-90
2022/06/15 01:33:39;;;;;;;8.77;6.13;;;11.40;99.90;;;;;;6208389;23;20599;-90
2022/06/15 01:36:33;;;;;;;15.33;5.43;;;11.40;99.90;;;;;;6207561;23;20162;-91
2022/06/15 01:39:12;;;;;;;11.87;5.37;;;11.30;99.90;;;;;;6209011;23;20193;-90
2022/06/15 01:41:53;;;;;;;7.10;5.57;;;11.30;99.90;;;;;;6207935;23;20194;-90
2022/06/15 01:44:31;;;;;;;8.43;5.87;;;11.30;99.90;;;;;;6208420;23;20204;-91
2022/06/15 01:47:02;;;;;;;6.87;5.33;;;11.30;99.90;;;;;;6208221;23;20209;-91
2022/06/15 01:49:34;;;;;;;8.73;6.60;;;11.20;99.90;;;;;;6208347;23;20198;-92
2022/06/15 01:52:01;;;;;;;10.97;6.53;;;11.30;99.90;;;;;;6208395;23;20260;-92
2022/06/15 01:54:33;;;;;;;8.07;5.37;;;11.30;99.90;;;;;;6183070;23;20640;-91
2022/06/15 01:57:02;;;;;;;7.63;5.37;;;11.40;99.90;;;;;;6208396;23;20146;-92
2022/06/15 01:59:42;;;;;;;10.17;5.50;;;11.30;99.90;;;;;;6208113;23;20989;-91
2022/06/15 02:02:40;;;;;;;10.53;6.27;;;11.40;99.90;;;;;;6207800;23;20236;-90
2022/06/15 02:05:28;;;;;;;7.30;5.33;;;11.50;99.90;;;;;;6157869;23;20647;-90
2022/06/15 02:08:18;;;;;;;13.17;6.63;;;11.50;99.90;;;;;;6207873;23;20212;-91
2022/06/15 02:11:06;;;;;;;9.77;6.20;;;11.50;99.90;;;;;;6207670;23;20280;-91
2022/06/15 02:13:52;;;;;;;10.10;6.27;;;11.50;99.90;;;;;;6207786;23;20253;-91
2022/06/15 02:16:26;;;;;;;9.00;6.87;;;11.50;99.90;;;;;;6207942;23;20639;-92
2022/06/15 02:18:52;;;;;;;11.17;6.77;;;11.40;99.90;;;;;;6210225;23;20225;-91
2022/06/15 02:21:20;;;;;;;7.40;5.63;;;11.40;99.90;;;;;;6160322;23;20269;-91
2022/06/15 02:23:51;;;;;;;9.00;7.10;;;11.40;99.90;;;;;;6185468;23;20722;-91
2022/06/15 02:26:18;;;;;;;12.37;6.50;;;11.40;99.90;;;;;;6210746;23;20249;-91
2022/06/15 02:28:51;;;;;;;8.60;5.63;;;11.40;99.90;;;;;;6209490;23;20201;-91
2022/06/15 02:31:18;;;;;;;15.47;7.23;;;11.40;99.90;;;;;;6209596;23;20651;-92
2022/06/15 02:33:51;;;;;;;11.07;7.30;;;11.50;99.90;;;;;;6159647;23;20197;-91
2022/06/15 02:36:17;;;;;;;9.50;6.10;;;11.50;99.90;;;;;;6209679;23;20221;-91
2022/06/15 02:38:46;;;;;;;6.57;5.87;;;11.60;99.90;;;;;;6185034;23;20166;-92
2022/06/15 02:41:13;;;;;;;10.60;6.63;;;11.60;99.90;;;;;;6160762;23;20244;-91
2022/06/15 02:43:41;;;;;;;6.90;5.60;;;11.70;99.90;;;;;;6209458;23;20280;-91
2022/06/15 02:46:10;;;;;;;7.70;5.20;;;11.70;99.90;;;;;;6209560;23;20201;-91
2022/06/15 02:48:37;;;;;;;10.60;6.60;;;11.60;99.90;;;;;;6208891;23;20198;-92
2022/06/15 02:51:22;;;;;;;7.03;5.10;;;11.60;99.90;;;;;;6184546;23;20587;-91
2022/06/15 02:53:51;;;;;;;8.47;5.20;;;11.50;99.90;;;;;;6209629;23;20139;-91
2022/06/15 02:56:19;;;;;;;6.97;4.83;;;11.40;99.90;;;;;;6208983;23;20201;-91
2022/06/15 02:58:48;;;;;;;9.40;4.60;;;11.30;99.90;;;;;;6183929;23;20217;-91
2022/06/15 03:01:14;;;;;;;7.03;5.47;;;11.20;99.90;;;;;;6208874;23;20213;-92
2022/06/15 03:03:41;;;;;;;12.07;6.47;;;11.30;99.90;;;;;;6184422;23;20203;-91
2022/06/15 03:06:12;;;;;;;6.73;5.47;;;11.40;99.90;;;;;;6209562;23;20159;-91
2022/06/15 03:08:38;;;;;;;9.73;7.03;;;11.40;99.90;;;;;;6210161;23;20162;-92
2022/06/15 03:11:04;;;;;;;6.60;5.73;;;11.40;99.90;;;;;;6209296;23;20198;-91
2022/06/15 03:13:30;;;;;;;26.63;6.70;;;11.40;99.90;;;;;;6183873;23;20209;-92
2022/06/15 03:16:01;;;;;;;7.17;5.73;;;11.40;99.90;;;;;;6184197;23;20308;-91
2022/06/15 03:18:28;;;;;;;7.93;5.77;;;11.40;99.90;;;;;;6209161;23;20190;-91
2022/06/15 03:20:58;;;;;;;13.00;6.40;;;11.30;99.90;;;;;;6160431;23;20205;-91
2022/06/15 03:23:25;;;;;;;7.37;5.43;;;11.50;99.90;;;;;;6209145;23;20200;-91
2022/06/15 03:25:59;;;;;;;8.07;5.77;;;11.60;99.90;;;;;;6209031;23;20276;-92
2022/06/15 03:28:25;;;;;;;7.70;5.60;;;11.60;99.90;;;;;;6208610;23;20194;-92
2022/06/15 03:30:51;;;;;;;9.90;5.80;;;11.70;99.90;;;;;;6159375;23;20200;-92
2022/06/15 03:33:18;;;;;;;9.87;5.77;;;11.70;99.90;;;;;;6159210;23;20256;-92
2022/06/15 03:35:45;;;;;;;7.43;5.87;;;11.70;99.90;;;;;;6209828;23;20166;-92
2022/06/15 03:38:11;;;;;;;9.63;6.40;;;11.70;99.90;;;;;;6208850;23;20643;-92
2022/06/15 03:40:43;;;;;;;13.00;5.97;;;11.70;99.90;;;;;;6183817;23;20212;-92
2022/06/15 03:43:09;;;;;;;11.27;5.53;;;11.70;99.90;;;;;;6209075;23;20316;-91
2022/06/15 03:45:35;;;;;;;9.43;4.70;;;11.80;99.90;;;;;;6209049;23;20193;-92
2022/06/15 03:48:02;;;;;;;12.83;6.17;;;11.90;99.90;;;;;;6209922;23;20151;-92
2022/06/15 03:50:32;;;;;;;8.67;5.30;;;12.00;99.90;;;;;;6184225;23;20220;-92
2022/06/15 03:52:59;;;;;;;9.27;5.20;;;12.10;99.90;;;;;;6209133;23;20233;-92
2022/06/15 03:55:28;;;;;;;8.83;6.33;;;12.10;99.90;;;;;;6208901;23;21065;-91
2022/06/15 03:57:54;;;;;;;5.30;4.77;;;12.10;99.90;;;;;;6208392;23;20236;-94
2022/06/15 04:00:22;;;;;;;6.43;5.17;;;12.10;99.90;;;;;;6184226;23;20491;-92
2022/06/15 04:02:48;;;;;;;9.20;4.93;;;12.20;99.90;;;;;;6209947;23;20162;-92
2022/06/15 04:05:28;;;;;;;8.27;4.67;;;12.30;99.90;;;;;;6183454;23;20208;-92
2022/06/15 04:10:38;;;;;;;6.23;4.53;;;12.30;99.90;;;;;;6208815;23;20247;-92
2022/06/15 04:13:06;;;;;;;7.77;4.67;;;12.30;99.90;;;;;;6208284;23;20213;-92
2022/06/15 04:15:32;;;;;;;10.43;6.70;;;12.30;99.90;;;;;;6183672;23;20205;-92
2022/06/15 04:18:02;;;;;;;18.33;6.57;;;12.40;99.90;;;;;;6209707;23;20158;-92
2022/06/15 04:20:36;;;;;;;9.47;6.13;;;12.60;99.90;;;;;;6184206;23;20194;-92
2022/06/15 04:23:07;;;;;;;10.27;5.63;;;12.70;99.90;;;;;;6162017;23;20251;-92
2022/06/15 04:25:57;;;;;;;9.83;5.13;;;12.70;99.90;;;;;;6209002;23;20198;-91
2022/06/15 04:28:25;;;;;;;12.27;6.07;;;12.80;99.90;;;;;;6208688;23;20190;-92
2022/06/15 04:30:54;;;;;;;5.70;4.30;;;12.90;99.90;;;;;;6208573;23;20198;-92
2022/06/15 04:33:20;;;;;;;9.97;5.30;;;13.00;99.90;;;;;;6208515;23;20158;-91
2022/06/15 04:35:49;;;;;;;8.77;6.87;;;13.10;99.90;;;;;;6209124;23;20154;-93
2022/06/15 04:38:22;;;;;;;9.03;4.90;;;13.20;99.90;;;;;;6185068;23;20271;-92
2022/06/15 04:40:48;;;;;;;9.10;4.87;;;13.40;99.90;;;;;;6158577;23;21072;-93
2022/06/15 04:43:16;;;;;;;9.33;4.43;;;13.50;99.90;;;;;;6183468;23;20673;-93
2022/06/15 04:45:44;;;;;;;8.23;4.97;;;13.60;99.90;;;;;;6208517;23;20194;-92
2022/06/15 04:48:10;;;;;;;10.87;5.73;;;13.80;99.90;;;;;;6208524;23;20532;-91
2022/06/15 04:50:37;;;;;;;8.23;5.47;;;13.90;99.90;;;;;;6209161;23;20158;-92
2022/06/15 04:53:05;;;;;;;7.07;5.17;;;14.00;99.90;;;;;;6208680;23;20227;-92
2022/06/15 04:55:33;;;;;;;9.10;5.63;;;14.10;99.90;;;;;;6208058;23;20194;-92
2022/06/15 04:58:05;;;;;;;9.77;5.23;;;14.30;99.90;;;;;;6208300;23;20228;-92
2022/06/15 05:00:40;;;;;;;11.17;6.23;;;14.40;99.90;;;;;;6184528;23;20220;-91
2022/06/15 05:03:07;;;;;;;6.77;5.23;;;14.60;99.90;;;;;;6207979;23;20621;-92
2022/06/15 05:05:39;;;;;;;6.30;4.73;;;14.70;99.90;;;;;;6209279;23;20624;-92
2022/06/15 05:08:24;;;;;;;6.90;4.33;;;15.00;99.90;;;;;;6208042;23;20529;-95
2022/06/15 05:22:42;;;;;;;5.80;4.47;;;21.30;99.90;;;;;;6059949;23;20197;-90
2022/06/15 05:33:40;;;;;;;;;;;;;;;;;;;;;
2022/06/15 05:47:21;;;;;;;5.50;3.80;;;21.00;99.90;;;;;;6028791;23;20166;-88
2022/06/15 06:02:13;;;;;;;16.43;4.63;;;24.10;99.90;;;;;;6165059;23;20357;-88
2022/06/15 06:04:39;;;;;;;5.47;4.47;;;25.10;99.90;;;;;;6160199;23;20206;-87
2022/06/15 06:07:05;;;;;;;8.07;4.07;;;26.00;99.90;;;;;;6101671;23;20226;-88
2022/06/15 06:09:31;;;;;;;6.27;4.17;;;28.00;99.90;;;;;;6150280;23;20199;-87
2022/06/15 06:11:57;;;;;;;6.57;4.37;;;28.00;99.90;;;;;;6126361;23;20218;-88
2022/06/15 06:14:23;;;;;;;5.47;4.07;;;28.70;99.90;;;;;;6150009;23;20727;-89
2022/06/15 06:16:49;;;;;;;7.63;5.57;;;30.10;99.90;;;;;;6101691;23;20203;-88
2022/06/15 06:19:15;;;;;;;7.53;4.55;;;30.30;99.90;;;;;;6101629;23;20649;-88
2022/06/15 06:21:43;;;;;;;10.07;4.88;;;30.30;99.90;;;;;;6125861;23;20207;-88
2022/06/15 06:24:12;;;;;;;5.95;4.35;;;30.10;99.90;;;;;;6102472;23;20615;-88
2022/06/15 06:26:39;;;;;;;6.50;4.60;;;28.90;99.90;;;;;;6103047;23;20492;-88
2022/06/15 06:29:06;;;;;;;6.35;3.90;;;28.90;99.90;;;;;;6125953;23;20210;-90
2022/06/15 06:31:34;;;;;;;4.43;3.75;;;28.50;99.90;;;;;;6150705;23;20588;-86
2022/06/15 06:34:00;;;;;;;5.32;3.65;;;29.60;99.90;;;;;;6100970;23;20199;-89
2022/06/15 06:36:38;;;;;;;5.13;3.30;;;29.10;99.90;;;;;;6125680;23;20199;-86
2022/06/15 06:39:10;;;;;;;6.45;3.22;;;28.10;99.90;;;;;;6174857;23;20151;-86
2022/06/15 06:41:36;;;;;;;4.47;3.05;;;26.50;99.90;;;;;;6150368;23;20178;-87
2022/06/15 06:44:06;;;;;;;6.85;2.75;;;24.90;99.90;;;;;;6125064;23;20195;-88
2022/06/15 06:46:34;;;;;;;8.35;3.00;;;25.60;99.90;;;;;;6137281;23;20227;-87
2022/06/15 06:49:00;;;;;;;5.05;2.72;;;27.20;99.90;;;;;;6125076;23;20203;-87
2022/06/15 06:51:27;;;;;;;3.55;2.85;;;26.40;99.90;;;;;;6149611;23;20215;-86
2022/06/15 06:53:53;;;;;;;4.50;2.70;;;27.50;99.90;;;;;;6150219;23;20589;-87
2022/06/15 06:56:18;;;;;;;6.20;3.40;;;26.70;99.90;;;;;;6125271;23;20254;-85
2022/06/15 06:58:44;;;;;;;4.72;3.17;;;25.40;99.90;;;;;;6116383;23;20255;-87
2022/06/15 07:01:10;;;;;;;5.38;3.20;;;24.80;99.90;;;;;;6138780;23;20211;-87
2022/06/15 07:03:36;;;;;;;4.88;3.13;;;24.00;99.90;;;;;;6178969;23;20198;-88
2022/06/15 07:06:08;;;;;;;6.43;3.72;;;24.60;99.90;;;;;;6154758;23;20174;-88
2022/06/15 07:08:34;;;;;;;5.78;4.03;;;24.90;99.90;;;;;;6181629;23;20155;-87
2022/06/15 07:11:00;;;;;;;4.95;3.72;;;24.90;99.90;;;;;;6154838;23;21170;-88
2022/06/15 07:13:25;;;;;;;7.25;3.95;;;26.00;99.90;;;;;;6155150;23;20198;-88
2022/06/15 07:15:51;;;;;;;5.43;3.20;;;25.50;99.90;;;;;;6154856;23;20277;-91
2022/06/15 07:18:18;;;;;;;7.65;4.72;;;26.30;99.90;;;;;;6155437;23;20162;-87
2022/06/15 07:20:44;;;;;;;5.85;4.25;;;25.30;99.90;;;;;;6180034;23;20780;-89
2022/06/15 07:23:10;;;;;;;7.00;4.43;;;25.30;99.90;;;;;;6154776;23;20203;-87
2022/06/15 07:25:35;;;;;;;6.88;5.00;;;24.80;99.90;;;;;;6155032;23;20194;-87
2022/06/15 07:28:03;;;;;;;7.25;3.95;;;25.10;99.90;;;;;;6154168;23;20209;-88
2022/06/15 07:30:29;;;;;;;6.68;4.70;;;25.00;99.90;;;;;;6154985;23;20628;-87
2022/06/15 07:32:55;;;;;;;6.15;4.40;;;25.20;99.90;;;;;;6181598;23;20159;-87
2022/06/15 07:35:28;;;;;;;6.90;3.50;;;25.40;99.90;;;;;;6154154;23;20632;-86
2022/06/15 07:37:54;;;;;;;8.07;4.20;;;25.10;99.90;;;;;;6178751;23;20278;-86
2022/06/15 07:40:21;;;;;;;3.83;2.90;;;24.90;99.90;;;;;;6153846;23;20226;-87
2022/06/15 07:42:48;;;;;;;5.95;3.40;;;25.10;99.90;;;;;;6178911;23;20515;-86
2022/06/15 07:45:16;;;;;;;6.30;3.58;;;25.70;99.90;;;;;;6178513;23;20155;-86
2022/06/15 07:50:27;;;;;;;6.43;3.00;;;26.70;99.90;;;;;;6178851;23;20194;-86
2022/06/15 07:52:54;;;;;;;3.55;3.25;;;25.90;99.90;;;;;;6153590;23;20213;-86
2022/06/15 07:55:25;;;;;;;4.10;3.15;;;25.40;99.90;;;;;;6178682;23;20199;-87
2022/06/15 07:57:51;;;;;;;3.78;3.00;;;25.70;99.90;;;;;;6178192;23;20210;-87
2022/06/15 08:00:18;;;;;;;7.40;3.00;;;25.70;99.90;;;;;;6178691;23;20244;-86
2022/06/15 08:02:44;;;;;;;7.10;4.00;;;26.50;99.90;;;;;;6154791;23;20474;-86
2022/06/15 08:05:10;;;;;;;6.10;3.42;;;26.10;99.90;;;;;;6178429;23;20269;-87
2022/06/15 08:07:36;;;;;;;4.15;2.78;;;26.50;99.90;;;;;;6154092;23;20203;-87
2022/06/15 08:10:04;;;;;;;4.25;2.53;;;26.80;99.90;;;;;;6153636;23;20206;-86
2022/06/15 08:12:29;;;;;;;5.68;3.00;;;25.70;99.90;;;;;;6153932;23;20857;-87
2022/06/15 08:14:58;;;;;;;4.93;2.80;;;24.60;99.90;;;;;;6154392;23;20293;-87
2022/06/15 08:17:31;;;;;;;5.03;3.35;;;24.30;99.90;;;;;;6178385;23;20512;-86
2022/06/15 08:20:05;;;;;;;5.07;3.35;;;24.70;99.90;;;;;;6178155;23;20190;-87
2022/06/15 08:22:33;;;;;;;4.82;3.67;;;23.70;99.90;;;;;;6178189;23;20680;-86
2022/06/15 08:25:01;;;;;;;4.53;3.10;;;22.90;99.90;;;;;;6178141;23;20285;-86
2022/06/15 08:27:28;;;;;;;6.75;3.03;;;22.00;99.90;;;;;;6154338;23;20566;-87
2022/06/15 08:29:54;;;;;;;2.50;2.30;;;22.00;99.90;;;;;;6154465;23;20155;-86
2022/06/15 08:32:20;;;;;;;6.15;2.80;;;22.50;99.90;;;;;;6178455;23;20206;-86
2022/06/15 08:34:46;;;;;;;4.68;2.60;;;23.00;99.90;;;;;;6178078;23;20569;-87
2022/06/15 08:37:14;;;;;;;4.93;3.10;;;23.30;99.90;;;;;;6153609;23;20194;-86
2022/06/15 08:39:40;;;;;;;5.63;2.65;;;24.20;99.90;;;;;;6179273;23;20194;-87
2022/06/15 08:42:25;;;;;;;3.78;2.58;;;24.50;99.90;;;;;;6178209;23;20191;-90
2022/06/15 08:45:37;;;;;;;3.67;2.13;;;24.70;99.90;;;;;;6178282;23;20163;-85
2022/06/15 08:48:08;;;;;;;4.25;2.47;;;24.60;99.90;;;;;;6092455;23;20688;-86
2022/06/15 08:50:42;;;;;;;6.43;3.03;;;25.40;99.90;;;;;;6139355;23;20194;-86
2022/06/15 08:53:39;;;;;;;4.82;2.58;;;26.40;99.90;;;;;;6148012;23;20199;-87
2022/06/15 08:56:11;;;;;;;2.75;2.22;;;25.90;99.90;;;;;;6148482;23;20206;-85
2022/06/15 08:58:50;;;;;;;4.35;2.42;;;25.10;99.90;;;;;;6149736;23;20207;-86
2022/06/15 09:01:28;;;;;;;3.85;2.80;;;25.50;99.90;;;;;;6147780;23;20293;-85
2022/06/15 09:04:10;;;;;;;6.03;2.83;;;24.90;99.90;;;;;;6147873;23;20199;-85
2022/06/15 09:06:48;;;;;;;3.60;2.63;;;24.20;99.90;;;;;;6148502;23;20202;-85
2022/06/15 09:09:16;;;;;;;4.90;2.67;;;23.80;99.90;;;;;;6148376;23;20190;-85
2022/06/15 09:11:48;;;;;;;7.25;3.10;;;23.60;99.90;;;;;;6148930;23;20297;-86
2022/06/15 09:14:16;;;;;;;5.05;3.75;;;22.70;99.90;;;;;;6147881;23;20588;-87
2022/06/15 09:17:11;;;;;;;5.03;3.30;;;22.20;99.90;;;;;;6147869;23;20282;-85
2022/06/15 09:19:46;;;;;;;4.80;3.58;;;22.50;99.90;;;;;;6147029;23;20254;-86
2022/06/15 09:22:18;;;;;;;7.65;3.83;;;22.40;99.90;;;;;;6147780;23;20206;-86
2022/06/15 09:24:48;;;;;;;4.50;3.20;;;21.80;99.90;;;;;;6148095;23;20584;-85
2022/06/15 09:27:26;;;;;;;3.95;3.10;;;22.20;99.90;;;;;;6147958;23;20174;-85
2022/06/15 09:30:04;;;;;;;4.88;3.00;;;22.70;99.90;;;;;;6150151;23;20532;-86
2022/06/15 09:32:39;;;;;;;5.70;3.37;;;22.70;99.90;;;;;;6177767;23;20182;-87
2022/06/15 09:35:16;;;;;;;4.60;3.35;;;22.10;99.90;;;;;;6177887;23;20204;-85
2022/06/15 09:37:46;;;;;;;5.43;3.23;;;21.80;99.90;;;;;;6177579;23;20198;-86
2022/06/15 09:40:14;;;;;;;3.43;3.13;;;21.80;99.90;;;;;;6177488;23;20198;-85
2022/06/15 09:42:46;;;;;;;4.57;3.10;;;22.00;99.90;;;;;;6153712;23;20199;-86
2022/06/15 09:45:37;;;;;;;6.20;2.97;;;21.40;99.90;;;;;;6178293;23;20250;-85
2022/06/15 09:48:03;;;;;;;3.80;2.83;;;20.90;99.90;;;;;;6177820;23;20178;-86
2022/06/15 09:51:07;;;;;;;4.93;2.97;;;21.10;99.90;;;;;;6178745;23;20163;-89
2022/06/15 09:53:57;;;;;;;3.40;3.10;;;22.60;99.90;;;;;;6088220;23;20291;-86
2022/06/15 09:56:24;;;;;;;11.30;3.63;;;24.50;99.90;;;;;;6064252;23;20772;-86
2022/06/15 09:59:01;;;;;;;6.10;3.13;;;24.90;99.90;;;;;;6091965;23;20230;-89
2022/06/15 10:01:38;;;;;;;4.63;2.67;;;24.70;99.90;;;;;;6148159;23;20218;-87
2022/06/15 10:04:06;;;;;;;6.70;3.53;;;24.30;99.90;;;;;;6149950;23;20671;-86
2022/06/15 10:06:52;;;;;;;2.80;2.45;;;25.10;99.90;;;;;;6124132;23;20199;-87
2022/06/15 10:09:26;;;;;;;4.72;2.83;;;25.90;99.90;;;;;;6148462;23;20148;-89
2022/06/15 10:12:56;;;;;;;3.58;2.53;;;25.60;99.90;;;;;;6148588;23;20144;-87
2022/06/15 10:14:51;;;;;;;5.72;3.08;;;24.80;99.90;;;;;;6148471;23;20191;-88
2022/06/15 10:17:30;;;;;;;6.50;3.05;;;24.00;99.90;;;;;;6149110;23;20203;-87
2022/06/15 10:19:57;;;;;;;3.97;2.88;;;23.70;99.90;;;;;;6148349;23;20207;-89
2022/06/15 10:22:40;;;;;;;5.78;3.03;;;23.60;99.90;;;;;;6124501;23;20218;-87
2022/06/15 10:25:14;;;;;;;6.07;3.80;;;24.60;99.90;;;;;;6148482;23;20676;-88
2022/06/15 10:27:40;;;;;;;4.90;3.08;;;23.40;99.90;;;;;;6126229;23;20207;-86
2022/06/15 10:30:11;;;;;;;3.42;2.80;;;22.90;99.90;;;;;;6099170;23;20174;-87
2022/06/15 10:33:02;;;;;;;6.43;3.05;;;23.00;99.90;;;;;;6149072;23;20167;-87
2022/06/15 10:35:34;;;;;;;6.57;2.97;;;23.20;99.90;;;;;;6150245;23;20235;-88
2022/06/15 10:38:10;;;;;;;4.55;2.42;;;24.20;99.90;;;;;;6154223;23;20203;-87
2022/06/15 10:40:39;;;;;;;3.65;2.58;;;24.30;99.90;;;;;;6149675;23;20207;-87
2022/06/15 10:43:12;;;;;;;4.60;2.58;;;23.10;99.90;;;;;;6125754;23;20648;-87
2022/06/15 10:45:43;;;;;;;4.95;2.88;;;24.00;99.90;;;;;;6149957;23;20199;-85
2022/06/15 10:48:45;;;;;;;2.70;2.40;;;24.60;99.90;;;;;;6149021;23;20144;-87
2022/06/15 10:51:15;;;;;;;2.95;2.03;;;24.80;99.90;;;;;;6146250;23;20163;-86
2022/06/15 10:53:50;;;;;;;5.32;1.92;;;25.20;99.90;;;;;;6150292;23;20159;-86
2022/06/15 11:02:28;;;;;;;3.47;2.03;;;24.30;99.90;;;;;;6175886;23;20215;-87
2022/06/15 11:05:08;;;;;;;2.53;2.33;;;23.30;99.90;;;;;;6154160;23;20233;-88
2022/06/15 11:07:53;;;;;;;2.67;1.95;;;23.30;99.90;;;;;;6154002;23;20202;-87
2022/06/15 11:10:34;;;;;;;3.08;1.77;;;23.70;99.90;;;;;;6154180;23;20198;-87
2022/06/15 11:13:22;;;;;;;2.95;2.05;;;23.60;99.90;;;;;;6154138;23;20199;-86
2022/06/15 11:19:00;;;;;;;4.93;2.20;;;24.30;99.90;;;;;;6179962;23;20505;-87
2022/06/15 11:21:34;;;;;;;2.55;1.92;;;24.40;99.90;;;;;;6180510;23;20210;-87
2022/06/15 11:24:05;;;;;;;3.55;2.00;;;23.80;99.90;;;;;;6154936;23;20170;-87
2022/06/15 11:26:57;;;;;;;5.32;2.17;;;22.90;99.90;;;;;;6154397;23;20635;-88
2022/06/15 11:29:31;;;;;;;2.42;2.13;;;22.70;99.90;;;;;;6154780;23;20221;-88
2022/06/15 11:32:21;;;;;;;2.60;2.40;;;22.80;99.90;;;;;;6154281;23;20277;-88
2022/06/15 11:35:12;;;;;;;4.43;2.60;;;23.30;99.90;;;;;;6069266;23;20269;-87
2022/06/15 11:38:04;;;;;;;2.42;2.17;;;23.10;99.90;;;;;;6154738;23;20206;-87
2022/06/15 11:40:56;;;;;;;2.58;2.03;;;23.30;99.90;;;;;;6154552;23;20202;-87
2022/06/15 11:43:29;;;;;;;4.32;2.38;;;22.90;99.90;;;;;;6140839;23;21059;-88
2022/06/15 11:46:13;;;;;;;5.70;2.20;;;23.10;99.90;;;;;;6154549;23;20662;-86
2022/06/15 11:49:11;;;;;;;2.72;2.47;;;23.20;99.90;;;;;;6154665;23;20640;-87
2022/06/15 11:51:50;;;;;;;3.80;2.85;;;22.40;99.90;;;;;;6126597;23;20252;-87
2022/06/15 11:54:24;;;;;;;4.35;1.95;;;22.10;99.90;;;;;;6154088;23;20155;-87
2022/06/15 11:57:11;;;;;;;3.70;1.95;;;21.70;99.90;;;;;;6154869;23;20592;-87
2022/06/15 12:00:14;;;;;;;2.60;2.23;;;21.70;99.90;;;;;;6208858;23;20186;-87
2022/06/15 12:02:52;;;;;;;2.97;2.27;;;21.70;99.90;;;;;;6208902;23;20205;-86
2022/06/15 12:05:25;;;;;;;2.83;2.43;;;21.60;99.90;;;;;;6208561;23;20210;-86
2022/06/15 12:08:12;;;;;;;2.00;1.85;;;21.30;99.90;;;;;;6208936;23;20359;-89
2022/06/15 12:11:00;;;;;;;2.50;2.30;;;21.60;99.90;;;;;;6208951;23;20206;-87
2022/06/15 12:13:34;;;;;;;7.67;2.57;;;21.80;99.90;;;;;;6208889;23;20209;-87
2022/06/15 12:16:21;;;;;;;2.97;2.03;;;21.70;99.90;;;;;;6208190;23;20197;-87
2022/06/15 12:19:28;;;;;;;2.40;2.20;;;21.20;99.90;;;;;;6208686;23;20785;-87
2022/06/15 12:22:33;;;;;;;3.17;2.07;;;21.80;99.90;;;;;;6209566;23;20240;-86
2022/06/15 12:25:28;;;;;;;2.53;1.90;;;22.20;99.90;;;;;;6208376;23;20202;-87
2022/06/15 12:28:08;;;;;;;3.07;2.37;;;22.30;99.90;;;;;;6208236;23;20209;-87
2022/06/15 12:31:02;;;;;;;3.07;2.40;;;22.20;99.90;;;;;;6208510;23;20525;-86
2022/06/15 12:33:44;;;;;;;2.50;2.23;;;22.20;99.90;;;;;;6208342;23;20293;-86
2022/06/15 12:36:18;;;;;;;2.80;2.13;;;22.60;99.90;;;;;;6208278;23;20146;-86
2022/06/15 12:38:50;;;;;;;2.20;2.00;;;23.00;99.90;;;;;;6208916;23;20147;-87
2022/06/15 12:44:23;;;;;;;4.43;2.00;;;22.70;99.90;;;;;;6209404;23;20286;-86
2022/06/15 12:46:51;;;;;;;3.80;3.03;;;22.50;99.90;;;;;;6208394;23;20281;-87
2022/06/15 12:49:34;;;;;;;3.55;2.00;;;22.20;99.90;;;;;;6183459;23;20308;-86
2022/06/15 12:52:12;;;;;;;3.20;2.40;;;22.10;99.90;;;;;;6208159;23;20217;-86
2022/06/15 12:54:56;;;;;;;4.67;2.10;;;22.60;99.90;;;;;;6208759;23;20249;-86
2022/06/15 12:57:27;;;;;;;2.47;1.65;;;23.00;99.90;;;;;;6208507;23;20231;-86
2022/06/15 13:00:12;;;;;;;2.28;1.65;;;22.60;99.90;;;;;;6209008;23;20164;-86
2022/06/15 13:03:03;;;;;;;1.48;1.38;;;22.80;99.90;;;;;;6207687;23;20738;-89
2022/06/15 13:05:32;;;;;;;3.55;2.30;;;22.90;99.90;;;;;;6208769;23;20174;-86
2022/06/15 13:08:16;;;;;;;3.00;2.15;;;23.00;99.90;;;;;;6207854;23;20201;-87
2022/06/15 13:10:54;;;;;;;4.55;2.13;;;23.10;99.90;;;;;;6208178;23;20201;-87
2022/06/15 13:13:29;;;;;;;4.75;2.00;;;23.50;99.90;;;;;;6208009;23;20197;-85
2022/06/15 13:15:57;;;;;;;2.53;2.20;;;23.60;99.90;;;;;;6208270;23;20201;-86
2022/06/15 13:18:47;;;;;;;1.80;1.70;;;23.10;99.90;;;;;;6207833;23;20197;-88
2022/06/15 13:21:19;;;;;;;4.85;2.42;;;22.30;99.90;;;;;;6207863;23;20705;-87
2022/06/15 13:24:06;;;;;;;3.20;2.20;;;22.30;99.90;;;;;;6208673;23;20518;-86
2022/06/15 13:26:38;;;;;;;5.25;1.98;;;22.30;99.90;;;;;;6209159;23;20677;-86
2022/06/15 13:29:07;;;;;;;3.63;1.90;;;22.10;99.90;;;;;;6207584;23;20221;-87
2022/06/15 13:31:53;;;;;;;2.70;1.70;;;21.60;99.90;;;;;;6208338;23;20232;-87
2022/06/15 13:34:34;;;;;;;3.93;2.13;;;21.60;99.90;;;;;;6207781;23;20824;-87
2022/06/15 13:37:27;;;;;;;2.93;2.23;;;21.90;99.90;;;;;;6208097;23;20236;-88
2022/06/15 13:39:59;;;;;;;5.87;1.90;;;22.30;99.90;;;;;;6202486;23;20663;-87
2022/06/15 13:43:00;;;;;;;3.13;1.90;;;21.90;99.90;;;;;;6206814;23;21131;-86
2022/06/15 13:45:26;;;;;;;3.27;1.77;;;22.20;99.90;;;;;;6207742;23;20202;-87
2022/06/15 13:48:04;;;;;;;1.80;1.70;;;22.30;99.90;;;;;;6208507;23;20188;-87
2022/06/15 13:50:35;;;;;;;2.00;1.60;;;22.00;99.90;;;;;;6208444;23;20182;-87
2022/06/15 13:53:06;;;;;;;2.57;1.43;;;21.60;99.90;;;;;;6207900;23;20729;-87
2022/06/15 13:56:04;;;;;;;3.63;1.57;;;21.50;99.90;;;;;;6208159;23;20194;-86
2022/06/15 13:59:14;;;;;;;1.60;1.50;;;21.60;99.90;;;;;;6196811;23;20202;-85
2022/06/15 14:01:52;;;;;;;1.77;1.67;;;21.60;99.90;;;;;;6207384;23;20237;-84
2022/06/15 14:04:49;;;;;;;2.13;1.50;;;21.40;99.90;;;;;;6207088;23;20202;-83
2022/06/15 14:07:23;;;;;;;4.33;1.63;;;21.20;99.90;;;;;;6207088;23;20669;-85
2022/06/15 14:10:02;;;;;;;1.87;1.67;;;21.30;99.90;;;;;;6207421;23;20197;-84
2022/06/15 14:12:56;;;;;;;3.93;1.87;;;21.40;99.90;;;;;;6207662;23;20197;-84
2022/06/15 14:16:09;;;;;;;1.63;1.53;;;21.50;99.90;;;;;;6211088;23;20242;-84
2022/06/15 14:18:38;;;;;;;1.60;1.30;;;21.80;99.90;;;;;;6128121;23;20670;-84
2022/06/15 14:21:16;;;;;;;1.70;1.40;;;21.60;99.90;;;;;;6209732;23;20189;-84
2022/06/15 14:23:43;;;;;;;1.43;1.33;;;21.80;99.90;;;;;;6209531;23;20165;-85
2022/06/15 14:26:11;;;;;;;3.53;1.73;;;21.60;99.90;;;;;;6209224;23;20200;-85